createdAt,value
2022-10-24T00:00:01.573Z,8.90
2022-10-24T00:02:31.121Z,8.90
2022-10-24T00:05:01.161Z,8.90
2022-10-24T00:07:30.470Z,8.90
2022-10-24T00:10:00.507Z,8.80
2022-10-24T00:12:31.326Z,8.80
2022-10-24T00:15:01.269Z,8.70
2022-10-24T00:17:30.540Z,8.60
2022-10-24T00:20:00.966Z,8.60
2022-10-24T00:22:30.887Z,8.60
2022-10-24T00:25:00.869Z,8.60
2022-10-24T00:27:31.692Z,8.60
2022-10-24T00:30:01.556Z,8.50
2022-10-24T00:32:30.998Z,8.50
2022-10-24T00:35:01.017Z,8.50
2022-10-24T00:37:30.283Z,8.40
2022-10-24T00:40:00.530Z,8.40
2022-10-24T00:42:31.380Z,8.40
2022-10-24T00:45:01.525Z,8.40
2022-10-24T00:47:31.062Z,8.50
2022-10-24T00:50:11.351Z,8.50
2022-10-24T00:52:44.248Z,8.80
2022-10-24T00:55:16.338Z,9.10
2022-10-24T00:57:51.094Z,9.40
2022-10-24T01:00:23.622Z,9.70
2022-10-24T01:02:53.261Z,9.80
2022-10-24T01:05:25.262Z,9.90
2022-10-24T01:08:10.653Z,10.00
2022-10-24T01:10:50.074Z,10.00
2022-10-24T01:13:31.093Z,10.10
2022-10-24T01:16:08.021Z,10.10
2022-10-24T01:18:44.074Z,10.10
2022-10-24T01:21:30.740Z,10.10
2022-10-24T01:24:27.605Z,10.10
2022-10-24T01:27:20.103Z,10.10
2022-10-24T01:29:58.477Z,10.20
2022-10-24T01:32:39.504Z,10.20
2022-10-24T01:35:24.007Z,10.20
2022-10-24T01:38:02.392Z,10.20
2022-10-24T01:40:35.617Z,10.20
2022-10-24T01:43:11.521Z,10.20
2022-10-24T01:45:46.549Z,10.20
2022-10-24T01:48:20.405Z,10.10
2022-10-24T01:50:53.645Z,10.10
2022-10-24T01:53:26.561Z,10.10
2022-10-24T01:55:56.373Z,10.10
2022-10-24T01:58:25.970Z,10.00
2022-10-24T02:01:03.202Z,10.00
2022-10-24T02:03:36.565Z,10.00
2022-10-24T02:06:10.717Z,10.10
2022-10-24T02:08:53.822Z,10.00
2022-10-24T02:11:23.156Z,10.00
2022-10-24T02:13:58.849Z,10.00
2022-10-24T02:16:29.660Z,10.10
2022-10-24T02:19:00.374Z,10.10
2022-10-24T02:21:35.301Z,10.20
2022-10-24T02:24:09.741Z,10.10
2022-10-24T02:26:44.357Z,10.10
2022-10-24T02:29:20.832Z,10.00
2022-10-24T02:31:56.611Z,9.80
2022-10-24T02:34:31.153Z,9.80
2022-10-24T02:37:03.089Z,9.70
2022-10-24T02:39:33.500Z,9.70
2022-10-24T02:42:04.878Z,9.80
2022-10-24T02:44:36.045Z,9.80
2022-10-24T02:47:09.661Z,9.80
2022-10-24T02:49:39.580Z,9.80
2022-10-24T02:52:09.372Z,9.80
2022-10-24T02:54:39.281Z,9.70
2022-10-24T02:57:08.573Z,9.80
2022-10-24T02:59:38.597Z,9.70
2022-10-24T03:02:09.597Z,9.80
2022-10-24T03:04:39.516Z,9.70
2022-10-24T03:07:09.174Z,9.70
2022-10-24T03:09:38.727Z,9.70
2022-10-24T03:12:08.308Z,9.70
2022-10-24T03:14:38.060Z,9.70
2022-10-24T03:17:08.773Z,9.80
2022-10-24T03:19:38.833Z,9.70
2022-10-24T03:22:08.180Z,9.80
2022-10-24T03:24:44.398Z,9.70
2022-10-24T03:27:24.337Z,9.80
2022-10-24T03:29:54.375Z,9.70
2022-10-24T03:34:59.816Z,9.80
2022-10-24T03:37:29.519Z,9.80
2022-10-24T03:39:59.445Z,9.80
2022-10-24T03:42:28.902Z,9.80
2022-10-24T03:44:58.435Z,9.80
2022-10-24T03:47:29.292Z,9.80
2022-10-24T03:49:58.881Z,9.80
2022-10-24T03:52:28.133Z,9.80
2022-10-24T03:54:58.025Z,9.90
2022-10-24T03:57:27.343Z,9.80
2022-10-24T03:59:57.200Z,9.80
2022-10-24T04:02:27.965Z,9.80
2022-10-24T04:04:58.046Z,9.80
2022-10-24T04:07:27.415Z,9.70
2022-10-24T04:09:57.617Z,9.70
2022-10-24T04:12:27.574Z,9.60
2022-10-24T04:15:01.019Z,9.60
2022-10-24T04:17:35.586Z,9.60
2022-10-24T04:20:06.761Z,9.60
2022-10-24T04:22:36.258Z,9.60
2022-10-24T04:25:06.905Z,9.70
2022-10-24T04:27:40.838Z,9.60
2022-10-24T04:30:16.337Z,9.70
2022-10-24T04:32:47.998Z,9.60
2022-10-24T04:35:18.323Z,9.70
2022-10-24T04:37:47.594Z,9.70
2022-10-24T04:40:18.000Z,9.70
2022-10-24T04:42:47.896Z,9.70
2022-10-24T04:45:18.138Z,9.70
2022-10-24T04:47:48.978Z,9.70
2022-10-24T04:50:19.117Z,9.70
2022-10-24T04:52:48.694Z,9.80
2022-10-24T04:55:18.891Z,9.80
2022-10-24T04:57:48.502Z,9.80
2022-10-24T05:00:18.866Z,9.80
2022-10-24T05:02:50.690Z,9.80
2022-10-24T05:05:23.182Z,9.70
2022-10-24T05:07:52.459Z,9.70
2022-10-24T05:10:22.437Z,9.70
2022-10-24T05:12:51.672Z,9.80
2022-10-24T05:15:22.044Z,9.80
2022-10-24T05:17:52.840Z,9.80
2022-10-24T05:20:22.885Z,9.80
2022-10-24T05:22:52.147Z,9.80
2022-10-24T05:25:22.226Z,9.80
2022-10-24T05:27:51.487Z,9.80
2022-10-24T05:30:21.831Z,9.90
2022-10-24T05:32:52.598Z,9.90
2022-10-24T05:35:22.305Z,9.90
2022-10-24T05:37:51.572Z,9.90
2022-10-24T05:40:21.939Z,9.90
2022-10-24T05:42:52.544Z,9.90
2022-10-24T05:45:23.035Z,10.00
2022-10-24T05:47:53.837Z,9.90
2022-10-24T05:50:23.721Z,10.00
2022-10-24T05:52:52.978Z,10.00
2022-10-24T05:55:22.977Z,9.90
2022-10-24T05:57:52.233Z,10.00
2022-10-24T06:00:22.272Z,9.90
2022-10-24T06:02:53.126Z,10.00
2022-10-24T06:05:23.380Z,10.00
2022-10-24T06:07:52.675Z,10.00
2022-10-24T06:10:22.905Z,10.00
2022-10-24T06:12:52.485Z,10.00
2022-10-24T06:15:22.353Z,10.00
2022-10-24T06:17:53.086Z,10.00
2022-10-24T06:20:23.000Z,10.00
2022-10-24T06:22:52.334Z,10.00
2022-10-24T06:25:22.672Z,10.10
2022-10-24T06:27:51.905Z,10.10
2022-10-24T06:30:21.875Z,10.10
2022-10-24T06:32:52.792Z,10.10
2022-10-24T06:35:22.762Z,10.10
2022-10-24T06:37:52.123Z,10.10
2022-10-24T06:40:22.153Z,10.10
2022-10-24T06:42:51.417Z,10.00
2022-10-24T06:45:22.101Z,10.10
2022-10-24T06:47:54.365Z,10.10
2022-10-24T06:50:24.698Z,10.10
2022-10-24T06:52:53.950Z,10.10
2022-10-24T06:55:23.950Z,10.10
2022-10-24T06:57:55.158Z,10.10
2022-10-24T07:00:24.765Z,10.10
2022-10-24T07:02:55.677Z,10.10
2022-10-24T07:05:25.589Z,10.20
2022-10-24T07:07:54.887Z,10.20
2022-10-24T07:10:25.368Z,10.20
2022-10-24T07:12:54.668Z,10.20
2022-10-24T07:15:24.317Z,10.20
2022-10-24T07:17:55.236Z,10.20
2022-10-24T07:20:25.463Z,10.20
2022-10-24T07:22:54.965Z,10.30
2022-10-24T07:25:25.005Z,10.30
2022-10-24T07:27:55.937Z,10.30
2022-10-24T07:30:26.119Z,10.30
2022-10-24T07:32:59.353Z,10.30
2022-10-24T07:35:29.413Z,10.40
2022-10-24T07:37:59.009Z,10.40
2022-10-24T07:40:28.996Z,10.50
2022-10-24T07:42:58.382Z,10.50
2022-10-24T07:45:28.629Z,10.50
2022-10-24T07:48:00.234Z,10.50
2022-10-24T07:50:30.017Z,10.50
2022-10-24T07:52:59.269Z,10.60
2022-10-24T07:55:29.348Z,10.60
2022-10-24T07:57:58.581Z,10.70
2022-10-24T08:00:28.140Z,10.60
2022-10-24T08:02:59.182Z,10.70
2022-10-24T08:05:28.927Z,10.70
2022-10-24T08:08:12.000Z,10.80
2022-10-24T08:10:48.491Z,10.80
2022-10-24T08:13:18.027Z,10.80
2022-10-24T08:15:47.570Z,10.80
2022-10-24T08:18:18.492Z,10.80
2022-10-24T08:20:57.908Z,10.80
2022-10-24T08:23:27.229Z,10.90
2022-10-24T08:25:56.899Z,10.80
2022-10-24T08:28:26.681Z,10.80
2022-10-24T08:31:00.113Z,10.80
2022-10-24T08:33:31.251Z,10.90
2022-10-24T08:36:03.057Z,10.80
2022-10-24T08:38:32.861Z,11.00
2022-10-24T08:41:03.106Z,11.00
2022-10-24T08:43:33.342Z,11.00
2022-10-24T08:46:12.317Z,11.10
2022-10-24T08:48:51.490Z,11.10
2022-10-24T08:51:31.946Z,11.10
2022-10-24T08:54:03.517Z,11.10
2022-10-24T08:56:35.559Z,11.10
2022-10-24T08:59:06.656Z,11.10
2022-10-24T09:01:43.269Z,11.10
2022-10-24T09:04:17.862Z,11.20
2022-10-24T09:06:50.132Z,11.10
2022-10-24T09:09:25.046Z,11.20
2022-10-24T09:11:58.532Z,11.30
2022-10-24T09:14:31.067Z,11.30
2022-10-24T09:17:03.971Z,11.30
2022-10-24T09:19:35.138Z,11.40
2022-10-24T09:22:05.762Z,11.40
2022-10-24T09:24:41.004Z,11.50
2022-10-24T09:27:15.660Z,11.50
2022-10-24T09:29:45.056Z,11.60
2022-10-24T09:32:21.106Z,11.70
2022-10-24T09:34:52.364Z,11.60
2022-10-24T09:37:43.961Z,11.70
2022-10-24T09:40:21.992Z,11.70
2022-10-24T09:42:57.598Z,11.70
2022-10-24T09:45:42.302Z,11.70
2022-10-24T09:48:29.205Z,11.70
2022-10-24T09:51:01.869Z,11.80
2022-10-24T09:53:34.701Z,11.80
2022-10-24T09:56:12.020Z,12.00
2022-10-24T09:58:42.638Z,12.00
2022-10-24T10:01:23.077Z,12.10
2022-10-24T10:04:08.830Z,12.00
2022-10-24T10:06:46.066Z,12.10
2022-10-24T10:09:17.528Z,12.10
2022-10-24T10:11:54.752Z,12.20
2022-10-24T10:14:32.837Z,12.20
2022-10-24T10:17:05.365Z,12.20
2022-10-24T10:19:38.968Z,12.20
2022-10-24T10:22:25.397Z,12.20
2022-10-24T10:24:55.933Z,12.40
2022-10-24T10:27:32.392Z,12.50
2022-10-24T10:30:20.351Z,12.70
2022-10-24T10:33:02.115Z,12.80
2022-10-24T10:35:37.110Z,12.90
2022-10-24T10:38:21.285Z,13.00
2022-10-24T10:40:55.088Z,13.10
2022-10-24T10:43:32.328Z,13.20
2022-10-24T10:46:15.018Z,13.20
2022-10-24T10:48:55.847Z,13.30
2022-10-24T10:51:37.583Z,13.50
2022-10-24T10:54:25.777Z,13.60
2022-10-24T10:56:58.461Z,13.80
2022-10-24T10:59:43.131Z,13.70
2022-10-24T11:02:36.515Z,13.90
2022-10-24T11:05:21.482Z,13.90
2022-10-24T11:08:05.711Z,14.00
2022-10-24T11:10:41.517Z,14.10
2022-10-24T11:13:20.543Z,14.40
2022-10-24T11:15:52.312Z,14.20
2022-10-24T11:18:31.578Z,14.30
2022-10-24T11:21:08.595Z,14.30
2022-10-24T11:26:24.332Z,14.30
2022-10-24T11:28:58.922Z,14.10
2022-10-24T11:31:32.209Z,14.10
2022-10-24T11:34:05.958Z,11.30
2022-10-24T11:36:43.285Z,13.90
2022-10-24T11:39:20.221Z,13.90
2022-10-24T11:41:58.902Z,13.90
2022-10-24T11:44:42.990Z,14.10
2022-10-24T11:47:43.214Z,14.40
2022-10-24T11:50:25.588Z,14.80
2022-10-24T11:52:59.894Z,14.80
2022-10-24T11:55:37.645Z,14.60
2022-10-24T11:58:14.460Z,14.60
2022-10-24T12:01:03.654Z,14.50
2022-10-24T12:04:01.931Z,14.30
2022-10-24T12:07:02.101Z,14.10
2022-10-24T12:09:47.502Z,13.90
2022-10-24T12:12:35.880Z,13.80
2022-10-24T12:15:28.050Z,13.70
2022-10-24T12:18:09.084Z,13.60
2022-10-24T12:20:39.909Z,13.50
2022-10-24T12:23:19.746Z,13.50
2022-10-24T12:25:53.349Z,13.40
2022-10-24T12:28:27.462Z,13.40
2022-10-24T12:31:15.017Z,13.40
2022-10-24T12:33:45.767Z,13.40
2022-10-24T12:36:15.666Z,13.50
2022-10-24T12:39:10.121Z,13.40
2022-10-24T12:41:43.759Z,13.40
2022-10-24T12:44:39.241Z,13.40
2022-10-24T12:47:33.317Z,13.30
2022-10-24T12:50:36.222Z,13.30
2022-10-24T12:53:18.182Z,13.30
2022-10-24T12:56:10.333Z,13.20
2022-10-24T12:58:43.029Z,13.30
2022-10-24T13:01:26.139Z,13.30
2022-10-24T13:04:22.575Z,13.40
2022-10-24T13:07:07.898Z,13.40
2022-10-24T13:09:45.706Z,13.50
2022-10-24T13:12:34.994Z,13.60
2022-10-24T13:15:26.630Z,13.60
2022-10-24T13:18:12.312Z,13.70
2022-10-24T13:20:45.649Z,13.80
2022-10-24T13:23:19.418Z,13.70
2022-10-24T13:25:50.512Z,13.70
2022-10-24T13:28:41.189Z,13.60
2022-10-24T13:31:45.307Z,13.70
2022-10-24T13:34:41.065Z,13.60
2022-10-24T13:37:24.341Z,13.60
2022-10-24T13:39:59.813Z,13.60
2022-10-24T13:42:43.368Z,13.60
2022-10-24T13:45:27.073Z,13.60
2022-10-24T13:48:01.115Z,13.60
2022-10-24T13:50:32.753Z,13.60
2022-10-24T13:53:03.782Z,13.60
2022-10-24T13:55:38.333Z,13.70
2022-10-24T13:58:13.293Z,13.60
2022-10-24T14:00:46.513Z,13.60
2022-10-24T14:03:18.479Z,13.60
2022-10-24T14:05:51.929Z,13.70
2022-10-24T14:08:26.245Z,13.70
2022-10-24T14:10:57.460Z,13.70
2022-10-24T14:13:30.016Z,13.70
2022-10-24T14:16:02.025Z,13.60
2022-10-24T14:18:32.862Z,13.70
2022-10-24T14:21:05.483Z,13.70
2022-10-24T14:23:38.326Z,13.70
2022-10-24T14:26:13.795Z,13.50
2022-10-24T14:28:50.805Z,13.50
2022-10-24T14:31:24.246Z,13.60
2022-10-24T14:33:55.423Z,13.70
2022-10-24T14:36:27.675Z,13.70
2022-10-24T14:39:01.261Z,13.70
2022-10-24T14:41:33.598Z,13.70
2022-10-24T14:44:03.266Z,13.70
2022-10-24T14:46:37.153Z,13.70
2022-10-24T14:49:33.783Z,13.70
2022-10-24T14:52:11.759Z,13.60
2022-10-24T14:54:45.426Z,13.60
2022-10-24T14:57:21.204Z,13.50
2022-10-24T14:59:53.430Z,13.50
2022-10-24T15:02:26.424Z,13.60
2022-10-24T15:05:26.365Z,13.60
2022-10-24T15:11:02.429Z,13.60
2022-10-24T15:13:34.777Z,13.70
2022-10-24T15:16:04.092Z,13.70
2022-10-24T15:18:42.632Z,13.60
2022-10-24T15:21:17.627Z,13.70
2022-10-24T15:23:49.749Z,13.70
2022-10-24T15:26:24.159Z,13.70
2022-10-24T15:28:58.572Z,13.60
2022-10-24T15:31:29.306Z,13.60
2022-10-24T15:33:59.220Z,13.60
2022-10-24T15:36:31.896Z,13.60
2022-10-24T15:39:03.612Z,13.60
2022-10-24T15:41:34.435Z,13.60
2022-10-24T15:44:04.702Z,13.60
2022-10-24T15:46:34.126Z,13.60
2022-10-24T15:49:05.186Z,13.60
2022-10-24T15:51:34.650Z,13.60
2022-10-24T15:54:05.681Z,13.60
2022-10-24T15:56:36.446Z,13.50
2022-10-24T15:59:07.729Z,13.60
2022-10-24T16:01:40.557Z,13.60
2022-10-24T16:04:12.289Z,13.60
2022-10-24T16:06:41.827Z,13.60
2022-10-24T16:09:18.334Z,13.60
2022-10-24T16:11:49.253Z,13.60
2022-10-24T16:14:21.937Z,13.60
2022-10-24T16:16:53.858Z,13.60
2022-10-24T16:19:23.957Z,13.60
2022-10-24T16:21:53.606Z,13.60
2022-10-24T16:24:23.489Z,13.60
2022-10-24T16:26:54.409Z,13.60
2022-10-24T16:29:24.346Z,13.60
2022-10-24T16:31:53.652Z,13.60
2022-10-24T16:34:23.809Z,13.70
2022-10-24T16:36:55.513Z,13.60
2022-10-24T16:39:25.782Z,13.60
2022-10-24T16:41:59.957Z,13.50
2022-10-24T16:44:29.632Z,13.50
2022-10-24T16:46:58.890Z,13.50
2022-10-24T16:49:28.755Z,13.40
2022-10-24T16:51:58.031Z,13.40
2022-10-24T16:54:27.539Z,13.50
2022-10-24T16:56:56.770Z,13.50
2022-10-24T16:59:29.266Z,13.50
2022-10-24T17:01:58.629Z,13.60
2022-10-24T17:04:32.842Z,13.60
2022-10-24T17:07:04.633Z,13.60
2022-10-24T17:09:34.177Z,13.70
2022-10-24T17:12:03.615Z,13.70
2022-10-24T17:14:36.692Z,13.70
2022-10-24T17:17:06.397Z,13.70
2022-10-24T17:19:37.191Z,13.80
2022-10-24T17:22:06.777Z,13.80
2022-10-24T17:24:39.399Z,13.80
2022-10-24T17:27:12.482Z,13.80
2022-10-24T17:29:44.820Z,13.70
2022-10-24T17:32:15.473Z,13.70
2022-10-24T17:34:50.247Z,13.70
2022-10-24T17:37:24.029Z,13.70
2022-10-24T17:39:57.981Z,13.70
2022-10-24T17:42:27.713Z,13.70
2022-10-24T17:44:59.694Z,13.70
2022-10-24T17:47:30.985Z,13.70
2022-10-24T17:50:01.697Z,13.60
2022-10-24T17:52:31.516Z,13.60
2022-10-24T17:55:01.545Z,13.60
2022-10-24T17:57:31.028Z,13.50
2022-10-24T18:00:03.080Z,13.50
2022-10-24T18:02:33.594Z,13.50
2022-10-24T18:05:03.861Z,13.50
2022-10-24T18:07:35.575Z,13.50
2022-10-24T18:10:06.111Z,13.60
2022-10-24T18:12:36.350Z,13.50
2022-10-24T18:15:11.122Z,13.50
2022-10-24T18:17:41.654Z,13.50
2022-10-24T18:20:13.296Z,13.50
2022-10-24T18:22:43.286Z,13.40
2022-10-24T18:25:20.252Z,13.40
2022-10-24T18:27:52.591Z,13.40
2022-10-24T18:30:24.026Z,13.40
2022-10-24T18:32:53.371Z,13.40
2022-10-24T18:35:23.243Z,13.40
2022-10-24T18:40:27.629Z,13.50
2022-10-24T18:43:04.408Z,13.40
2022-10-24T18:45:37.971Z,13.40
2022-10-24T18:48:09.924Z,13.50
2022-10-24T18:50:39.653Z,13.40
2022-10-24T18:53:22.189Z,13.50
2022-10-24T18:55:53.657Z,13.50
2022-10-24T18:58:31.762Z,13.60
2022-10-24T19:01:13.507Z,13.60
2022-10-24T19:03:50.739Z,13.60
2022-10-24T19:06:26.853Z,13.60
2022-10-24T19:08:56.709Z,13.50
2022-10-24T19:11:26.651Z,13.40
2022-10-24T19:13:56.348Z,13.40
2022-10-24T19:16:30.313Z,13.40
2022-10-24T19:19:03.920Z,13.40
2022-10-24T19:21:34.167Z,13.30
2022-10-24T19:24:03.617Z,13.30
2022-10-24T19:26:33.312Z,13.20
2022-10-24T19:29:04.975Z,13.30
2022-10-24T19:31:37.951Z,13.30
2022-10-24T19:34:07.415Z,13.30
2022-10-24T19:36:37.011Z,13.20
2022-10-24T19:39:07.678Z,13.20
2022-10-24T19:41:38.082Z,13.20
2022-10-24T19:44:07.684Z,13.10
2022-10-24T19:46:38.754Z,13.00
2022-10-24T19:49:07.942Z,12.90
2022-10-24T19:51:38.481Z,12.90
2022-10-24T19:54:08.230Z,12.90
2022-10-24T19:56:38.353Z,13.10
2022-10-24T19:59:09.703Z,13.30
2022-10-24T20:01:40.986Z,13.30
2022-10-24T20:04:10.742Z,13.40
2022-10-24T20:06:40.783Z,13.50
2022-10-24T20:09:10.115Z,13.50
2022-10-24T20:11:40.313Z,13.60
2022-10-24T20:14:10.180Z,13.60
2022-10-24T20:16:41.857Z,13.60
2022-10-24T20:19:11.350Z,13.70
2022-10-24T20:21:41.953Z,13.70
2022-10-24T20:24:11.405Z,13.80
2022-10-24T20:26:41.443Z,13.80
2022-10-24T20:29:11.050Z,13.80
2022-10-24T20:31:44.894Z,13.90
2022-10-24T20:34:15.520Z,13.90
2022-10-24T20:36:47.565Z,13.90
2022-10-24T20:39:21.328Z,14.00
2022-10-24T20:41:54.037Z,14.00
2022-10-24T20:44:23.853Z,14.00
2022-10-24T20:46:59.248Z,14.10
2022-10-24T20:49:28.782Z,14.10
2022-10-24T20:51:58.929Z,14.20
2022-10-24T20:54:28.352Z,14.20
2022-10-24T20:56:58.366Z,14.20
2022-10-24T20:59:27.678Z,14.20
2022-10-24T21:01:59.348Z,14.20
2022-10-24T21:04:28.664Z,14.20
2022-10-24T21:06:58.741Z,14.20
2022-10-24T21:09:28.364Z,14.20
2022-10-24T21:11:58.104Z,14.20
2022-10-24T21:14:27.589Z,14.20
2022-10-24T21:16:59.213Z,14.10
2022-10-24T21:19:30.110Z,14.10
2022-10-24T21:21:59.822Z,14.10
2022-10-24T21:24:29.068Z,14.10
2022-10-24T21:26:58.682Z,14.10
2022-10-24T21:29:33.194Z,14.10
2022-10-24T21:32:05.465Z,14.00
2022-10-24T21:34:35.073Z,14.00
2022-10-24T21:37:05.649Z,14.00
2022-10-24T21:39:35.033Z,14.10
2022-10-24T21:42:05.754Z,14.00
2022-10-24T21:44:36.451Z,14.00
2022-10-24T21:47:07.936Z,14.10
2022-10-24T21:49:36.931Z,14.10
2022-10-24T21:52:07.107Z,14.00
2022-10-24T21:54:36.656Z,14.00
2022-10-24T21:57:06.635Z,14.00
2022-10-24T21:59:36.581Z,14.00
2022-10-24T22:02:08.166Z,14.00
2022-10-24T22:04:37.538Z,14.00
2022-10-24T22:07:07.541Z,14.00
2022-10-24T22:09:37.114Z,13.90
2022-10-24T22:12:07.536Z,13.90
2022-10-24T22:14:36.905Z,13.90
2022-10-24T22:17:08.223Z,13.90
2022-10-24T22:19:37.583Z,13.80
2022-10-24T22:22:07.117Z,13.80
2022-10-24T22:24:36.589Z,13.80
2022-10-24T22:27:06.690Z,13.80
2022-10-24T22:29:36.057Z,13.80
2022-10-24T22:32:08.198Z,13.80
2022-10-24T22:34:38.039Z,13.90
2022-10-24T22:37:17.241Z,13.80
2022-10-24T22:39:46.960Z,13.90
2022-10-24T22:42:20.148Z,13.90
2022-10-24T22:44:51.216Z,13.90
2022-10-24T22:47:49.129Z,13.80
2022-10-24T22:50:43.345Z,13.80
2022-10-24T22:53:15.953Z,13.80
2022-10-24T22:55:53.160Z,13.80
2022-10-24T22:58:23.817Z,13.80
2022-10-24T23:00:57.462Z,13.80
2022-10-24T23:03:39.258Z,13.80
2022-10-24T23:06:16.090Z,13.80
2022-10-24T23:08:47.153Z,13.80
2022-10-24T23:11:16.933Z,13.80
2022-10-24T23:13:47.561Z,13.80
2022-10-24T23:16:25.838Z,13.80
2022-10-24T23:18:57.825Z,13.90
2022-10-24T23:21:32.767Z,13.80
2022-10-24T23:24:02.918Z,13.90
2022-10-24T23:26:39.302Z,14.00
2022-10-24T23:29:17.007Z,14.00
2022-10-24T23:31:46.703Z,14.00
2022-10-24T23:34:19.232Z,14.10
2022-10-24T23:36:49.268Z,14.00
2022-10-24T23:41:49.345Z,14.00
2022-10-24T23:44:19.703Z,14.00
2022-10-24T23:46:53.689Z,13.90
2022-10-24T23:49:35.123Z,13.90
2022-10-24T23:52:13.884Z,13.90
2022-10-24T23:54:43.969Z,13.90
2022-10-24T23:57:18.566Z,13.90
2022-10-24T23:59:48.288Z,13.90
